TimePST,TemperatureF,Dew PointF,Humidity,Sea Level PressureIn,VisibilityMPH,Wind Direction,Wind SpeedMPH,Gust SpeedMPH,PrecipitationIn,Events,Conditions,WindDirDegrees,DateUTC
12:38 AM,15.8,12.2,86,30.44,1.5,Calm,Calm,-,N/A,,Overcast,0,2013-01-02 08:38:00
1:08 AM,14.0,10.4,86,30.43,1.0,Calm,Calm,-,N/A,,Overcast,0,2013-01-02 09:08:00
1:40 AM,14.0,12.2,93,30.43,2.0,Calm,Calm,-,N/A,,Overcast,0,2013-01-02 09:40:00
1:48 AM,14.0,10.4,86,30.43,1.0,Calm,Calm,-,N/A,,Overcast,0,2013-01-02 09:48:00
1:56 AM,14.0,10.9,88,30.55,1.2,Calm,Calm,-,N/A,,Overcast,0,2013-01-02 09:56:00
2:15 AM,14.0,10.4,86,30.44,2.0,Calm,Calm,-,N/A,,Overcast,0,2013-01-02 10:15:00
2:24 AM,14.0,10.4,86,30.44,1.5,Variable,3.5,-,N/A,,Overcast,0,2013-01-02 10:24:00
2:56 AM,14.0,10.9,88,30.55,1.5,Calm,Calm,-,N/A,,Overcast,0,2013-01-02 10:56:00
3:23 AM,14.0,10.4,86,30.44,2.0,Calm,Calm,-,N/A,,Overcast,0,2013-01-02 11:23:00
3:31 AM,14.0,10.4,86,30.44,1.5,NE,3.5,-,N/A,,Overcast,40,2013-01-02 11:31:00
3:56 AM,14.0,10.9,88,30.56,1.0,NNW,4.6,-,N/A,,Overcast,340,2013-01-02 11:56:00
4:05 AM,14.0,10.4,86,30.43,0.5,Calm,Calm,-,N/A,Fog,Light Freezing Fog,0,2013-01-02 12:05:00
4:33 AM,14.0,10.4,86,30.43,1.0,North,4.6,-,N/A,,Mist,360,2013-01-02 12:33:00
4:56 AM,14.0,10.9,88,30.56,1.5,Calm,Calm,-,N/A,,Overcast,0,2013-01-02 12:56:00
5:24 AM,12.2,10.4,92,30.42,0.8,Calm,Calm,-,0.00,Snow,Light Snow,0,2013-01-02 13:24:00
5:35 AM,14.0,10.4,86,30.42,1.2,NNE,3.5,-,0.00,,Overcast,20,2013-01-02 13:35:00
5:53 AM,12.2,10.4,92,30.42,3.0,North,3.5,-,0.00,,Overcast,360,2013-01-02 13:53:00
5:56 AM,12.9,10.0,88,30.57,2.5,Calm,Calm,-,0.00,Snow,Light Snow,0,2013-01-02 13:56:00
6:37 AM,12.2,10.4,92,30.43,1.5,Calm,Calm,-,0.00,,Overcast,0,2013-01-02 14:37:00
6:56 AM,12.9,10.0,88,30.57,2.0,Calm,Calm,-,0.00,,Overcast,0,2013-01-02 14:56:00
7:18 AM,12.2,10.4,92,30.43,1.2,Calm,Calm,-,N/A,,Overcast,0,2013-01-02 15:18:00
7:56 AM,14.0,10.0,84,30.57,1.0,Calm,Calm,-,N/A,,Overcast,0,2013-01-02 15:56:00
8:56 AM,14.0,10.0,84,30.57,3.0,Calm,Calm,-,0.00,,Overcast,0,2013-01-02 16:56:00
9:56 AM,12.9,9.0,84,30.59,3.0,Calm,Calm,-,0.00,,Overcast,0,2013-01-02 17:56:00
10:56 AM,14.0,10.9,88,30.58,3.0,Calm,Calm,-,N/A,,Overcast,0,2013-01-02 18:56:00
11:56 AM,15.1,10.9,84,30.56,3.0,Calm,Calm,-,0.00,Snow,Light Snow,0,2013-01-02 19:56:00
12:02 PM,14.0,10.4,86,30.41,2.5,Calm,Calm,-,0.00,Snow,Light Snow,0,2013-01-02 20:02:00
12:12 PM,14.0,10.4,86,30.41,1.0,Calm,Calm,-,0.00,,Overcast,0,2013-01-02 20:12:00
12:21 PM,14.0,10.4,86,30.41,3.0,Calm,Calm,-,0.00,Snow,Light Snow,0,2013-01-02 20:21:00
12:46 PM,15.8,12.2,86,30.39,2.0,Calm,Calm,-,0.00,Snow,Light Snow,0,2013-01-02 20:46:00
12:53 PM,15.8,12.2,86,30.39,1.2,Calm,Calm,-,0.00,Snow,Light Snow,0,2013-01-02 20:53:00
12:56 PM,16.0,12.0,84,30.53,1.8,Calm,Calm,-,0.00,Snow,Light Snow,0,2013-01-02 20:56:00
1:01 PM,15.8,12.2,86,30.39,3.0,Calm,Calm,-,0.00,Snow,Light Snow,0,2013-01-02 21:01:00
1:56 PM,15.1,10.0,80,30.52,3.0,North,3.5,-,0.00,Snow,Light Snow,10,2013-01-02 21:56:00
2:56 PM,15.1,10.0,80,30.53,6.0,Calm,Calm,-,0.00,,Haze,0,2013-01-02 22:56:00
3:09 PM,15.8,10.4,79,30.39,1.8,WNW,4.6,-,0.00,Snow,Light Snow,300,2013-01-02 23:09:00
3:40 PM,15.8,10.4,79,30.39,2.0,NW,5.8,-,0.00,Snow,Light Snow,320,2013-01-02 23:40:00
3:53 PM,15.8,12.2,86,30.39,7.0,NNW,4.6,-,0.00,,Overcast,330,2013-01-02 23:53:00
3:56 PM,15.1,10.9,84,30.53,9.0,NNW,4.6,-,0.00,,Overcast,340,2013-01-02 23:56:00
4:56 PM,14.0,10.9,88,30.53,10.0,West,5.8,-,N/A,,Overcast,270,2013-01-03 00:56:00
5:19 PM,14.0,10.4,86,30.39,7.0,West,4.6,-,N/A,,Overcast,280,2013-01-03 01:19:00
5:56 PM,14.0,12.0,92,30.53,9.0,Calm,Calm,-,N/A,,Overcast,0,2013-01-03 01:56:00
6:56 PM,14.0,10.9,88,30.52,10.0,SSW,3.5,-,N/A,,Overcast,210,2013-01-03 02:56:00
7:41 PM,14.0,10.4,86,30.37,1.5,Calm,Calm,-,0.00,Snow,Light Snow,0,2013-01-03 03:41:00
7:54 PM,14.0,10.4,86,30.37,2.0,WSW,3.5,-,0.00,Snow,Light Snow,240,2013-01-03 03:54:00
7:56 PM,14.0,10.0,84,30.51,4.0,Calm,Calm,-,0.00,Snow,Light Snow,0,2013-01-03 03:56:00
8:56 PM,12.9,10.0,88,30.50,10.0,Calm,Calm,-,N/A,,Overcast,0,2013-01-03 04:56:00
9:56 PM,14.0,10.0,84,30.50,10.0,Calm,Calm,-,N/A,,Overcast,0,2013-01-03 05:56:00
10:56 PM,12.9,10.0,88,30.50,10.0,Calm,Calm,-,N/A,,Overcast,0,2013-01-03 06:56:00
11:56 PM,12.9,10.0,88,30.48,9.0,Calm,Calm,-,N/A,,Overcast,0,2013-01-03 07:56:00